createdAt,value
2022-12-08T00:01:08.604Z,4.03
2022-12-08T00:03:36.176Z,4.00
2022-12-08T00:06:23.152Z,4.07
2022-12-08T00:09:08.511Z,4.08
2022-12-08T00:11:35.029Z,3.98
2022-12-08T00:14:01.657Z,4.01
2022-12-08T00:16:28.215Z,4.00
2022-12-08T00:18:54.778Z,4.02
2022-12-08T00:21:21.243Z,4.05
2022-12-08T00:23:47.662Z,4.03
2022-12-08T00:26:14.078Z,4.04
2022-12-08T00:28:40.478Z,4.01
2022-12-08T00:31:11.635Z,3.98
2022-12-08T00:33:38.240Z,3.92
2022-12-08T00:36:12.821Z,3.97
2022-12-08T00:38:40.327Z,3.96
2022-12-08T00:41:14.561Z,3.93
2022-12-08T00:43:41.373Z,3.99
2022-12-08T00:46:07.917Z,4.00
2022-12-08T00:48:34.882Z,3.95
2022-12-08T00:51:01.391Z,4.01
2022-12-08T00:53:27.912Z,3.98
2022-12-08T00:55:54.352Z,3.95
2022-12-08T00:58:20.756Z,3.93
2022-12-08T01:00:47.257Z,3.95
2022-12-08T01:03:13.789Z,3.94
2022-12-08T01:05:40.293Z,3.96
2022-12-08T01:08:08.696Z,3.92
2022-12-08T01:10:36.645Z,3.91
2022-12-08T01:13:03.352Z,3.87
2022-12-08T01:15:29.772Z,3.91
2022-12-08T01:17:56.414Z,3.95
2022-12-08T01:20:22.910Z,3.92
2022-12-08T01:22:49.356Z,3.89
2022-12-08T01:25:15.888Z,3.96
2022-12-08T01:27:42.295Z,3.97
2022-12-08T01:30:09.370Z,4.02
2022-12-08T01:32:35.812Z,4.01
2022-12-08T01:35:02.399Z,4.01
2022-12-08T01:37:29.744Z,3.96
2022-12-08T01:39:56.101Z,4.01
2022-12-08T01:42:23.688Z,4.01
2022-12-08T01:44:55.005Z,4.00
2022-12-08T01:47:24.164Z,3.98
2022-12-08T01:49:50.650Z,4.01
2022-12-08T01:52:24.755Z,4.01
2022-12-08T01:55:00.696Z,4.02
2022-12-08T01:57:31.466Z,4.02
2022-12-08T02:00:05.564Z,4.02
2022-12-08T02:02:42.045Z,4.04
2022-12-08T02:05:09.777Z,4.05
2022-12-08T02:07:37.520Z,4.06
2022-12-08T02:10:05.109Z,4.02
2022-12-08T02:12:31.931Z,4.00
2022-12-08T02:15:04.745Z,4.06
2022-12-08T02:17:53.641Z,4.03
2022-12-08T02:20:43.101Z,4.04
2022-12-08T02:23:15.494Z,4.09
2022-12-08T02:25:48.833Z,4.11
2022-12-08T02:28:45.480Z,4.05
2022-12-08T02:31:25.976Z,4.09
2022-12-08T02:34:12.612Z,4.08
2022-12-08T02:37:23.172Z,4.10
2022-12-08T02:40:09.978Z,4.05
2022-12-08T02:42:55.044Z,4.05
2022-12-08T02:45:44.932Z,4.03
2022-12-08T02:48:11.909Z,4.01
2022-12-08T02:50:38.368Z,4.00
2022-12-08T02:55:42.981Z,3.96
2022-12-08T02:58:39.773Z,4.01
2022-12-08T03:01:17.994Z,4.06
2022-12-08T03:03:56.528Z,4.04
2022-12-08T03:06:32.164Z,4.01
2022-12-08T03:09:07.125Z,3.97
2022-12-08T03:11:46.535Z,4.01
2022-12-08T03:14:16.294Z,4.01
2022-12-08T03:16:47.242Z,4.00
2022-12-08T03:19:17.401Z,3.98
2022-12-08T03:21:45.709Z,4.01
2022-12-08T03:24:15.181Z,4.04
2022-12-08T03:26:48.407Z,4.07
2022-12-08T03:29:15.127Z,3.98
2022-12-08T03:31:49.318Z,4.01
2022-12-08T03:34:18.212Z,3.95
2022-12-08T03:36:45.623Z,3.93
2022-12-08T03:39:12.252Z,3.92
2022-12-08T03:41:38.655Z,3.95
2022-12-08T03:44:05.283Z,4.01
2022-12-08T03:46:31.846Z,4.00
2022-12-08T03:48:58.217Z,4.04
2022-12-08T03:51:24.932Z,4.05
2022-12-08T03:53:51.369Z,4.01
2022-12-08T03:56:30.756Z,4.00
2022-12-08T03:58:57.792Z,3.99
2022-12-08T04:01:24.834Z,4.01
2022-12-08T04:03:51.333Z,4.06
2022-12-08T04:06:18.910Z,4.02
2022-12-08T04:08:45.597Z,4.07
2022-12-08T04:11:12.185Z,4.03
2022-12-08T04:13:40.566Z,4.00
2022-12-08T04:16:08.229Z,3.96
2022-12-08T04:18:35.816Z,3.98
2022-12-08T04:21:02.375Z,4.04
2022-12-08T04:23:28.781Z,4.03
2022-12-08T04:25:55.213Z,3.97
2022-12-08T04:28:21.773Z,3.96
2022-12-08T04:30:49.285Z,3.98
2022-12-08T04:33:16.094Z,3.97
2022-12-08T04:35:42.592Z,3.96
2022-12-08T04:38:09.069Z,3.97
2022-12-08T04:40:35.483Z,3.98
2022-12-08T04:43:01.923Z,3.97
2022-12-08T04:45:28.355Z,3.98
2022-12-08T04:47:54.769Z,4.04
2022-12-08T04:50:21.174Z,4.05
2022-12-08T04:52:47.605Z,4.05
2022-12-08T04:55:13.966Z,4.06
2022-12-08T04:57:40.437Z,3.94
2022-12-08T05:00:07.938Z,3.99
2022-12-08T05:02:34.628Z,3.92
2022-12-08T05:05:01.327Z,3.95
2022-12-08T05:07:27.965Z,3.88
2022-12-08T05:09:54.428Z,3.93
2022-12-08T05:12:20.867Z,3.91
2022-12-08T05:14:48.309Z,3.93
2022-12-08T05:17:15.891Z,3.93
2022-12-08T05:19:42.485Z,4.00
2022-12-08T05:22:09.130Z,3.93
2022-12-08T05:24:35.644Z,3.99
2022-12-08T05:27:02.161Z,4.01
2022-12-08T05:29:28.606Z,3.95
2022-12-08T05:31:55.125Z,3.93
2022-12-08T05:34:21.642Z,4.01
2022-12-08T05:36:48.185Z,3.98
2022-12-08T05:39:14.874Z,3.97
2022-12-08T05:41:41.795Z,4.01
2022-12-08T05:44:08.614Z,3.98
2022-12-08T05:46:35.403Z,4.01
2022-12-08T05:49:02.381Z,4.02
2022-12-08T05:51:28.961Z,4.04
2022-12-08T05:53:55.657Z,4.08
2022-12-08T05:56:22.853Z,4.00
2022-12-08T05:58:50.124Z,3.98
2022-12-08T06:01:27.713Z,3.99
2022-12-08T06:03:55.003Z,4.00
2022-12-08T06:06:21.764Z,4.04
2022-12-08T06:08:48.847Z,4.00
2022-12-08T06:11:21.024Z,3.94
2022-12-08T06:13:47.873Z,3.98
2022-12-08T06:16:14.321Z,3.98
2022-12-08T06:18:40.849Z,4.00
2022-12-08T06:21:09.986Z,3.96
2022-12-08T06:23:37.028Z,3.93
2022-12-08T06:26:09.224Z,3.88
2022-12-08T06:28:36.430Z,3.90
2022-12-08T06:31:11.703Z,3.92
2022-12-08T06:33:38.622Z,3.92
2022-12-08T06:36:06.285Z,3.95
2022-12-08T06:38:33.110Z,3.89
2022-12-08T06:41:00.135Z,3.88
2022-12-08T06:43:27.521Z,3.89
2022-12-08T06:45:54.068Z,3.90
2022-12-08T06:48:20.669Z,3.85
2022-12-08T06:50:47.072Z,3.82
2022-12-08T06:53:16.638Z,3.88
2022-12-08T06:56:00.803Z,3.85
2022-12-08T06:58:27.348Z,3.88
2022-12-08T07:00:54.225Z,3.80
2022-12-08T07:03:20.870Z,3.75
2022-12-08T07:05:47.388Z,3.83
2022-12-08T07:08:13.895Z,3.74
2022-12-08T07:10:40.424Z,3.66
2022-12-08T07:13:06.901Z,3.69
2022-12-08T07:15:33.293Z,3.69
2022-12-08T07:18:00.512Z,3.73
2022-12-08T07:20:27.419Z,3.75
2022-12-08T07:22:54.204Z,3.79
2022-12-08T07:25:20.726Z,3.80
2022-12-08T07:27:48.054Z,3.77
2022-12-08T07:30:14.921Z,3.73
2022-12-08T07:32:41.431Z,3.68
2022-12-08T07:35:08.889Z,3.58
2022-12-08T07:37:37.481Z,3.59
2022-12-08T07:40:08.644Z,3.64
2022-12-08T07:42:35.506Z,3.68
2022-12-08T07:45:02.258Z,3.66
2022-12-08T07:47:28.694Z,3.59
2022-12-08T07:49:55.165Z,3.57
2022-12-08T07:52:21.561Z,3.61
2022-12-08T07:54:47.947Z,3.61
2022-12-08T07:57:14.640Z,3.61
2022-12-08T07:59:41.110Z,3.58
2022-12-08T08:02:24.337Z,3.66
2022-12-08T08:04:51.909Z,3.69
2022-12-08T08:07:18.383Z,3.57
2022-12-08T08:09:45.823Z,3.61
2022-12-08T08:12:30.665Z,3.50
2022-12-08T08:14:58.960Z,3.54
2022-12-08T08:17:25.508Z,3.56
2022-12-08T08:19:52.090Z,3.53
2022-12-08T08:22:18.478Z,3.46
2022-12-08T08:24:45.411Z,3.50
2022-12-08T08:27:12.065Z,3.51
2022-12-08T08:29:38.536Z,3.52
2022-12-08T08:32:05.053Z,3.50
2022-12-08T08:34:31.496Z,3.45
2022-12-08T08:36:58.037Z,3.43
2022-12-08T08:39:24.597Z,3.40
2022-12-08T08:41:51.011Z,3.35
2022-12-08T08:44:17.451Z,3.36
2022-12-08T08:46:44.207Z,3.41
2022-12-08T08:49:10.713Z,3.42
2022-12-08T08:51:37.200Z,3.50
2022-12-08T08:54:03.641Z,3.50
2022-12-08T08:56:30.136Z,3.50
2022-12-08T08:58:56.626Z,3.54
2022-12-08T09:01:26.856Z,3.47
2022-12-08T09:03:54.805Z,3.52
2022-12-08T09:06:22.021Z,3.52
2022-12-08T09:08:48.999Z,3.54
2022-12-08T09:11:18.469Z,3.55
2022-12-08T09:13:48.254Z,3.63
2022-12-08T09:16:15.011Z,3.58
2022-12-08T09:18:41.557Z,3.53
2022-12-08T09:21:13.006Z,3.54
2022-12-08T09:23:39.496Z,3.60
2022-12-08T09:26:07.836Z,3.55
2022-12-08T09:28:34.281Z,3.51
2022-12-08T09:31:01.968Z,3.53
2022-12-08T09:33:28.534Z,3.55
2022-12-08T09:35:54.928Z,3.55
2022-12-08T09:38:21.472Z,3.56
2022-12-08T09:40:53.673Z,3.58
2022-12-08T09:43:20.046Z,3.60
2022-12-08T09:45:48.263Z,3.71
2022-12-08T09:48:22.846Z,3.70
2022-12-08T09:50:57.249Z,3.66
2022-12-08T09:53:36.865Z,3.65
2022-12-08T09:56:12.333Z,3.62
2022-12-08T09:58:48.929Z,3.58
2022-12-08T10:01:16.611Z,3.53
2022-12-08T10:03:43.943Z,3.56
2022-12-08T10:06:33.537Z,3.64
2022-12-08T10:09:23.890Z,3.59
2022-12-08T10:11:56.807Z,3.53
2022-12-08T10:14:34.139Z,3.58
2022-12-08T10:17:22.724Z,3.68
2022-12-08T10:19:55.462Z,3.66
2022-12-08T10:22:24.746Z,3.75
2022-12-08T10:25:18.353Z,3.79
2022-12-08T10:27:48.209Z,3.76
2022-12-08T10:30:17.071Z,3.70
2022-12-08T10:32:46.344Z,3.72
2022-12-08T10:35:15.795Z,3.60
2022-12-08T10:37:56.908Z,3.67
2022-12-08T10:40:26.973Z,3.71
2022-12-08T10:42:57.479Z,3.68
2022-12-08T10:45:31.122Z,3.76
2022-12-08T10:48:04.384Z,3.75
2022-12-08T10:50:36.606Z,3.75
2022-12-08T10:53:19.732Z,3.79
2022-12-08T10:55:50.962Z,3.76
2022-12-08T10:58:42.682Z,3.71
2022-12-08T11:01:22.223Z,3.77
2022-12-08T11:04:00.846Z,3.75
2022-12-08T11:06:30.393Z,3.75
2022-12-08T11:08:59.740Z,3.83
2022-12-08T11:11:44.801Z,3.90
2022-12-08T11:14:25.600Z,3.90
2022-12-08T11:16:55.922Z,3.92
2022-12-08T11:19:27.652Z,3.94
2022-12-08T11:21:54.141Z,4.00
2022-12-08T11:24:34.647Z,4.02
2022-12-08T11:27:05.482Z,4.03
2022-12-08T11:29:33.756Z,3.98
2022-12-08T11:32:11.512Z,4.07
2022-12-08T11:35:06.281Z,4.09
2022-12-08T11:37:43.812Z,4.05
2022-12-08T11:40:36.209Z,4.17
2022-12-08T11:43:15.498Z,4.10
2022-12-08T11:45:42.223Z,4.05
2022-12-08T11:48:19.123Z,4.06
2022-12-08T11:50:51.603Z,4.09
2022-12-08T11:53:29.864Z,4.09
2022-12-08T11:56:08.352Z,4.07
2022-12-08T11:58:49.589Z,4.08
2022-12-08T12:01:22.427Z,4.13
2022-12-08T12:04:12.460Z,4.15
2022-12-08T12:06:56.831Z,4.14
2022-12-08T12:09:58.837Z,4.11
2022-12-08T12:13:00.075Z,4.11
2022-12-08T12:16:04.230Z,4.08
2022-12-08T12:18:49.967Z,4.13
2022-12-08T12:21:31.114Z,4.11
2022-12-08T12:24:03.608Z,4.10
2022-12-08T12:26:32.740Z,4.10
2022-12-08T12:29:06.646Z,4.11
2022-12-08T12:31:43.466Z,4.09
2022-12-08T12:34:34.142Z,4.09
2022-12-08T12:37:05.887Z,4.09
2022-12-08T12:39:45.329Z,4.08
2022-12-08T12:42:43.865Z,4.13
2022-12-08T12:45:34.088Z,4.17
2022-12-08T12:48:00.476Z,4.20
2022-12-08T12:50:32.964Z,4.23
2022-12-08T12:53:17.918Z,4.22
2022-12-08T12:55:54.784Z,4.26
2022-12-08T12:58:30.189Z,4.21
2022-12-08T13:01:12.508Z,4.28
2022-12-08T13:04:09.095Z,4.24
2022-12-08T13:06:40.493Z,4.19
2022-12-08T13:09:16.888Z,4.17
2022-12-08T13:11:55.821Z,4.15
2022-12-08T13:14:47.510Z,4.21
2022-12-08T13:17:22.666Z,4.29
2022-12-08T13:20:03.831Z,4.33
2022-12-08T13:22:50.179Z,4.27
2022-12-08T13:25:44.377Z,4.32
2022-12-08T13:28:26.462Z,4.33
2022-12-08T13:30:59.895Z,4.34
2022-12-08T13:33:27.818Z,4.25
2022-12-08T13:36:02.423Z,4.28
2022-12-08T13:38:32.571Z,4.25
2022-12-08T13:41:03.274Z,4.25
2022-12-08T13:44:02.555Z,4.29
2022-12-08T13:47:09.824Z,4.28
2022-12-08T13:58:34.453Z,4.31
2022-12-08T14:01:22.128Z,4.31
2022-12-08T14:04:31.119Z,4.31
2022-12-08T14:06:45.543Z,4.35
2022-12-08T14:09:16.163Z,4.29
2022-12-08T14:12:03.300Z,4.29
2022-12-08T14:15:01.259Z,4.33
2022-12-08T14:17:22.149Z,4.34
2022-12-08T14:19:57.038Z,4.34
2022-12-08T14:22:23.986Z,4.30
2022-12-08T14:24:53.536Z,4.32
2022-12-08T14:27:23.004Z,4.33
2022-12-08T14:29:58.230Z,4.29
2022-12-08T14:32:30.685Z,4.33
2022-12-08T14:35:03.055Z,4.31
2022-12-08T14:37:32.855Z,4.30
2022-12-08T14:40:23.114Z,4.32
2022-12-08T14:43:06.054Z,4.31
2022-12-08T14:45:35.322Z,4.26
2022-12-08T14:48:33.610Z,4.28
2022-12-08T14:51:18.795Z,4.22
2022-12-08T14:53:55.430Z,4.17
2022-12-08T14:56:31.578Z,4.16
2022-12-08T14:59:19.792Z,4.10
2022-12-08T15:01:48.102Z,4.16
2022-12-08T15:04:14.775Z,4.17
2022-12-08T15:06:51.984Z,4.17
2022-12-08T15:09:30.959Z,4.16
2022-12-08T15:12:26.730Z,4.19
2022-12-08T15:15:15.234Z,4.14
2022-12-08T15:17:48.858Z,4.10
2022-12-08T15:20:41.757Z,4.06
2022-12-08T15:23:21.991Z,4.04
2022-12-08T15:25:49.364Z,4.08
2022-12-08T15:28:18.606Z,4.06
2022-12-08T15:30:45.423Z,4.06
2022-12-08T15:33:11.831Z,4.05
2022-12-08T15:35:40.956Z,4.04
2022-12-08T15:38:30.348Z,4.02
2022-12-08T15:41:00.673Z,4.04
2022-12-08T15:43:27.907Z,3.97
2022-12-08T15:45:59.374Z,3.99
2022-12-08T15:48:28.517Z,4.00
2022-12-08T15:50:56.082Z,4.06
2022-12-08T15:53:22.901Z,4.03
2022-12-08T15:56:18.815Z,4.02
2022-12-08T15:58:55.281Z,4.00
2022-12-08T16:01:23.079Z,3.93
2022-12-08T16:09:36.967Z,3.96
2022-12-08T16:12:23.194Z,4.00
2022-12-08T16:17:36.850Z,3.96
2022-12-08T16:20:06.334Z,3.97
2022-12-08T16:25:22.003Z,3.96
2022-12-08T16:28:17.197Z,3.90
2022-12-08T16:30:40.706Z,3.96
2022-12-08T16:33:07.225Z,3.96
2022-12-08T16:35:33.815Z,3.94
2022-12-08T16:38:00.381Z,3.92
2022-12-08T16:40:26.847Z,3.90
2022-12-08T16:42:53.525Z,3.90
2022-12-08T16:45:25.757Z,3.90
2022-12-08T16:47:54.793Z,3.89
2022-12-08T16:50:29.653Z,3.89
2022-12-08T16:52:58.703Z,3.94
2022-12-08T16:55:25.178Z,3.94
2022-12-08T16:57:51.985Z,3.96
2022-12-08T17:00:21.499Z,3.96
2022-12-08T17:02:49.080Z,3.95
2022-12-08T17:05:17.621Z,3.94
2022-12-08T17:07:46.115Z,3.88
2022-12-08T17:10:16.167Z,3.89
2022-12-08T17:12:43.321Z,3.93
2022-12-08T17:15:13.084Z,3.85
2022-12-08T17:17:40.060Z,3.89
2022-12-08T17:20:09.946Z,3.87
2022-12-08T17:22:36.381Z,3.88
2022-12-08T17:25:03.986Z,3.85
2022-12-08T17:27:30.933Z,3.88
2022-12-08T17:29:57.432Z,3.90
2022-12-08T17:32:24.255Z,3.87
2022-12-08T17:34:50.844Z,3.90
2022-12-08T17:37:17.692Z,3.90
2022-12-08T17:39:44.509Z,3.91
2022-12-08T17:42:11.074Z,3.92
2022-12-08T17:44:37.545Z,3.93
2022-12-08T17:47:05.108Z,3.93
2022-12-08T17:49:32.849Z,3.88
2022-12-08T17:52:01.827Z,3.86
2022-12-08T17:54:28.954Z,3.91
2022-12-08T17:56:58.542Z,3.91
2022-12-08T17:59:25.728Z,3.92
2022-12-08T18:01:53.783Z,3.90
2022-12-08T18:04:20.871Z,3.85
2022-12-08T18:06:47.496Z,3.82
2022-12-08T18:09:14.819Z,3.82
2022-12-08T18:11:42.702Z,3.80
2022-12-08T18:14:10.324Z,3.75
2022-12-08T18:16:42.592Z,3.76
2022-12-08T18:19:12.423Z,3.80
2022-12-08T18:21:39.712Z,3.82
2022-12-08T18:24:06.764Z,3.75
2022-12-08T18:26:33.410Z,3.75
2022-12-08T18:29:00.010Z,3.80
2022-12-08T18:31:26.855Z,3.78
2022-12-08T18:33:53.752Z,3.79
2022-12-08T18:36:23.936Z,3.78
2022-12-08T18:38:51.535Z,3.74
2022-12-08T18:41:20.630Z,3.75
2022-12-08T18:43:47.094Z,3.68
2022-12-08T18:46:14.752Z,3.72
2022-12-08T18:48:44.734Z,3.73
2022-12-08T18:51:12.777Z,3.72
2022-12-08T18:53:39.730Z,3.71
2022-12-08T18:56:06.962Z,3.74
2022-12-08T18:58:33.687Z,3.66
2022-12-08T19:01:00.331Z,3.65
2022-12-08T19:03:26.859Z,3.70
2022-12-08T19:06:04.666Z,3.70
2022-12-08T19:08:31.634Z,3.70
2022-12-08T19:10:58.680Z,3.60
2022-12-08T19:13:25.604Z,3.61
2022-12-08T19:15:52.036Z,3.63
2022-12-08T19:18:18.671Z,3.58
2022-12-08T19:22:36.767Z,3.67
2022-12-08T19:25:04.665Z,3.64
2022-12-08T19:27:33.981Z,3.60
2022-12-08T19:30:00.649Z,3.62
2022-12-08T19:32:27.076Z,3.58
2022-12-08T19:34:53.475Z,3.58
2022-12-08T19:37:19.890Z,3.60
2022-12-08T19:40:04.949Z,3.65
2022-12-08T19:42:49.966Z,3.60
2022-12-08T19:45:21.511Z,3.60
2022-12-08T19:47:48.429Z,3.64
2022-12-08T19:50:34.871Z,3.62
2022-12-08T19:53:02.057Z,3.58
2022-12-08T19:55:29.001Z,3.58
2022-12-08T19:57:56.961Z,3.54
2022-12-08T20:00:24.004Z,3.57
2022-12-08T20:02:50.564Z,3.56
2022-12-08T20:05:16.981Z,3.57
2022-12-08T20:07:43.861Z,3.56
2022-12-08T20:10:22.760Z,3.55
2022-12-08T20:12:49.352Z,3.60
2022-12-08T20:15:15.954Z,3.50
2022-12-08T20:17:43.583Z,3.48
2022-12-08T20:20:10.911Z,3.48
2022-12-08T20:22:37.528Z,3.53
2022-12-08T20:25:04.151Z,3.52
2022-12-08T20:27:30.752Z,3.50
2022-12-08T20:29:57.118Z,3.34
2022-12-08T20:32:23.773Z,3.36
2022-12-08T20:34:50.360Z,3.36
2022-12-08T20:37:16.725Z,3.37
2022-12-08T20:39:43.149Z,3.31
2022-12-08T20:42:13.561Z,3.24
2022-12-08T20:44:44.135Z,3.25
2022-12-08T20:47:11.981Z,3.26
2022-12-08T20:49:38.662Z,3.26
2022-12-08T20:52:05.589Z,3.24
2022-12-08T20:54:32.175Z,3.24
2022-12-08T20:56:59.114Z,3.25
2022-12-08T20:59:26.678Z,3.26
2022-12-08T21:01:53.884Z,3.25
2022-12-08T21:04:21.206Z,3.20
2022-12-08T21:06:48.083Z,3.21
2022-12-08T21:09:14.618Z,3.23
2022-12-08T21:11:41.350Z,3.20
2022-12-08T21:14:08.009Z,3.06
2022-12-08T21:16:34.754Z,3.14
2022-12-08T21:19:01.260Z,3.03
2022-12-08T21:21:27.739Z,3.08
2022-12-08T21:23:54.254Z,3.09
2022-12-08T21:26:25.812Z,3.12
2022-12-08T21:28:54.719Z,3.12
2022-12-08T21:31:21.914Z,3.14
2022-12-08T21:33:49.215Z,3.16
2022-12-08T21:36:18.394Z,3.16
2022-12-08T21:38:45.010Z,3.20
2022-12-08T21:41:15.810Z,3.17
2022-12-08T21:43:42.827Z,3.20
2022-12-08T21:46:16.935Z,3.17
2022-12-08T21:48:43.875Z,3.12
2022-12-08T21:51:10.320Z,3.08
2022-12-08T21:53:37.077Z,3.01
2022-12-08T21:56:08.808Z,3.05
2022-12-08T21:58:35.399Z,3.04
2022-12-08T22:01:06.772Z,2.99
2022-12-08T22:03:33.432Z,3.00
2022-12-08T22:06:12.314Z,3.04
2022-12-08T22:08:39.469Z,3.04
2022-12-08T22:11:08.091Z,3.06
2022-12-08T22:13:36.641Z,3.06
2022-12-08T22:16:05.528Z,3.08
2022-12-08T22:18:32.434Z,3.08
2022-12-08T22:20:59.245Z,3.05
2022-12-08T22:23:26.104Z,3.05
2022-12-08T22:26:00.142Z,3.01
2022-12-08T22:28:28.349Z,3.02
2022-12-08T22:30:54.842Z,3.02
2022-12-08T22:33:21.355Z,3.00
2022-12-08T22:36:09.668Z,3.00
2022-12-08T22:38:37.346Z,2.98
2022-12-08T22:41:05.628Z,2.97
2022-12-08T22:43:32.660Z,2.89
2022-12-08T22:45:59.300Z,2.90
2022-12-08T22:48:26.139Z,2.96
2022-12-08T22:50:59.001Z,3.01
2022-12-08T22:53:25.889Z,2.98
2022-12-08T22:55:52.378Z,2.95
2022-12-08T22:58:19.878Z,2.96
2022-12-08T23:00:46.381Z,3.01
2022-12-08T23:03:12.987Z,2.99
2022-12-08T23:05:40.538Z,2.96
2022-12-08T23:08:08.936Z,2.96
2022-12-08T23:10:35.850Z,2.99
2022-12-08T23:13:04.142Z,2.94
2022-12-08T23:15:31.597Z,2.98
2022-12-08T23:17:58.138Z,2.91
2022-12-08T23:20:24.902Z,2.95
2022-12-08T23:22:51.676Z,2.91
2022-12-08T23:25:18.522Z,2.87
2022-12-08T23:27:46.153Z,2.90
2022-12-08T23:30:13.596Z,2.88
2022-12-08T23:32:40.440Z,2.95
2022-12-08T23:35:07.979Z,2.84
2022-12-08T23:37:34.817Z,2.82
2022-12-08T23:40:01.480Z,2.86
2022-12-08T23:42:29.959Z,2.89
2022-12-08T23:44:56.537Z,2.91
2022-12-08T23:47:23.120Z,2.89
2022-12-08T23:49:49.535Z,2.91
2022-12-08T23:52:16.043Z,2.91
2022-12-08T23:54:42.445Z,2.94
2022-12-08T23:57:08.890Z,2.96
2022-12-08T23:59:35.313Z,2.98
